createdAt,value
2023-04-18T00:02:07.178Z,98.88
2023-04-18T00:04:36.082Z,102.55
2023-04-18T00:07:04.394Z,99.43
2023-04-18T00:09:33.035Z,105.18
2023-04-18T00:12:04.488Z,99.75
2023-04-18T00:14:34.314Z,105.57
2023-04-18T00:17:04.277Z,107.30
2023-04-18T00:19:34.442Z,103.82
2023-04-18T00:22:02.903Z,103.25
2023-04-18T00:24:31.605Z,108.55
2023-04-18T00:26:59.994Z,106.88
2023-04-18T00:29:29.098Z,111.05
2023-04-18T00:31:57.226Z,106.47
2023-04-18T00:34:26.995Z,114.03
2023-04-18T00:36:55.524Z,110.60
2023-04-18T00:39:23.696Z,118.85
2023-04-18T00:41:52.098Z,110.07
2023-04-18T00:44:20.367Z,108.47
2023-04-18T00:46:48.704Z,110.45
2023-04-18T00:49:17.239Z,110.35
2023-04-18T00:51:47.707Z,109.05
2023-04-18T00:54:19.032Z,113.13
2023-04-18T00:56:47.302Z,111.78
2023-04-18T00:59:15.624Z,111.47
2023-04-18T01:01:45.414Z,113.43
2023-04-18T01:04:13.972Z,114.35
2023-04-18T01:06:44.128Z,112.88
2023-04-18T01:09:14.888Z,111.80
2023-04-18T01:11:42.988Z,111.22
2023-04-18T01:14:11.218Z,110.20
2023-04-18T01:16:40.241Z,117.28
2023-04-18T01:19:08.472Z,116.45
2023-04-18T01:21:37.420Z,110.68
2023-04-18T01:24:12.401Z,110.25
2023-04-18T01:26:41.130Z,110.85
2023-04-18T01:29:09.265Z,109.70
2023-04-18T01:31:38.848Z,107.30
2023-04-18T01:34:07.503Z,105.55
2023-04-18T01:36:36.776Z,105.57
2023-04-18T01:39:05.608Z,109.80
2023-04-18T01:41:35.329Z,109.75
2023-04-18T01:44:03.665Z,107.63
2023-04-18T01:46:32.755Z,103.40
2023-04-18T01:49:01.070Z,103.10
2023-04-18T01:51:29.210Z,102.45
2023-04-18T01:53:57.499Z,107.03
2023-04-18T01:56:25.591Z,106.35
2023-04-18T01:58:55.066Z,109.45
2023-04-18T02:01:24.021Z,104.07
2023-04-18T02:03:52.360Z,105.13
2023-04-18T02:06:20.694Z,103.55
2023-04-18T02:08:49.808Z,106.93
2023-04-18T02:11:17.992Z,103.53
2023-04-18T02:13:46.134Z,103.50
2023-04-18T02:16:16.302Z,101.57
2023-04-18T02:18:44.857Z,101.28
2023-04-18T02:21:13.253Z,94.47
2023-04-18T02:23:42.050Z,99.43
2023-04-18T02:26:10.200Z,100.57
2023-04-18T02:28:39.253Z,96.30
2023-04-18T02:31:14.742Z,96.28
2023-04-18T02:33:45.111Z,95.47
2023-04-18T02:36:14.054Z,92.43
2023-04-18T02:38:42.457Z,92.82
2023-04-18T02:41:15.121Z,90.35
2023-04-18T02:43:43.747Z,94.20
2023-04-18T02:46:11.982Z,89.00
2023-04-18T02:48:40.266Z,94.45
2023-04-18T02:51:10.977Z,96.53
2023-04-18T02:53:39.181Z,96.90
2023-04-18T02:56:08.393Z,94.22
2023-04-18T02:58:37.247Z,93.63
2023-04-18T03:01:05.692Z,94.97
2023-04-18T03:03:33.878Z,89.75
2023-04-18T03:06:02.158Z,90.30
2023-04-18T03:08:31.744Z,93.22
2023-04-18T03:10:59.996Z,96.20
2023-04-18T03:13:28.650Z,92.43
2023-04-18T03:15:56.986Z,85.75
2023-04-18T03:18:25.316Z,89.18
2023-04-18T03:20:54.006Z,90.20
2023-04-18T03:23:22.196Z,88.72
2023-04-18T03:25:51.826Z,88.90
2023-04-18T03:28:20.690Z,89.15
2023-04-18T03:30:48.830Z,92.45
2023-04-18T03:33:18.092Z,87.15
2023-04-18T03:35:46.673Z,87.43
2023-04-18T03:38:15.113Z,89.50
2023-04-18T03:40:44.517Z,83.63
2023-04-18T03:43:14.168Z,85.93
2023-04-18T03:45:44.157Z,89.05
2023-04-18T03:48:13.444Z,83.47
2023-04-18T03:50:42.082Z,82.55
2023-04-18T03:53:10.444Z,82.85
2023-04-18T03:55:39.074Z,82.55
2023-04-18T03:58:07.422Z,82.20
2023-04-18T04:00:37.415Z,83.50
2023-04-18T04:03:07.043Z,84.22
2023-04-18T04:05:36.035Z,75.20
2023-04-18T04:08:04.215Z,76.75
2023-04-18T04:10:32.383Z,74.07
2023-04-18T04:13:01.062Z,74.78
2023-04-18T04:15:29.259Z,72.40
2023-04-18T04:17:59.090Z,74.90
2023-04-18T04:20:28.158Z,71.72
2023-04-18T04:22:58.152Z,67.43
2023-04-18T04:25:29.894Z,70.35
2023-04-18T04:27:58.075Z,67.10
2023-04-18T04:30:26.256Z,63.70
2023-04-18T04:32:56.652Z,66.18
2023-04-18T04:35:26.909Z,62.60
2023-04-18T04:37:55.325Z,62.88
2023-04-18T04:40:24.498Z,62.78
2023-04-18T04:42:54.184Z,63.08
2023-04-18T04:45:23.401Z,58.17
2023-04-18T04:47:51.628Z,60.58
2023-04-18T04:50:20.140Z,59.50
2023-04-18T04:52:49.942Z,59.30
2023-04-18T04:55:19.058Z,60.45
2023-04-18T04:57:47.816Z,57.53
2023-04-18T05:00:20.977Z,58.05
2023-04-18T05:02:49.414Z,56.75
2023-04-18T05:05:17.734Z,56.75
2023-04-18T05:07:46.207Z,53.50
2023-04-18T05:10:16.225Z,52.67
2023-04-18T05:12:44.478Z,51.97
2023-04-18T05:15:13.692Z,51.92
2023-04-18T05:17:42.066Z,52.53
2023-04-18T05:20:11.413Z,53.25
2023-04-18T05:22:39.666Z,49.72
2023-04-18T05:25:09.007Z,48.97
2023-04-18T05:27:38.577Z,46.53
2023-04-18T05:30:08.345Z,48.10
2023-04-18T05:32:38.989Z,48.97
2023-04-18T05:35:08.082Z,49.72
2023-04-18T05:37:36.520Z,51.22
2023-04-18T05:40:05.288Z,47.28
2023-04-18T05:42:33.626Z,47.80
2023-04-18T05:45:03.447Z,43.97
2023-04-18T05:47:33.661Z,40.60
2023-04-18T05:50:01.925Z,38.58
2023-04-18T05:52:30.180Z,40.80
2023-04-18T05:54:58.480Z,35.38
2023-04-18T05:57:27.231Z,35.78
2023-04-18T05:59:55.907Z,35.60
2023-04-18T06:02:25.740Z,34.10
2023-04-18T06:04:54.412Z,31.17
2023-04-18T06:07:25.353Z,33.50
2023-04-18T06:09:54.102Z,31.33
2023-04-18T06:12:22.517Z,28.27
2023-04-18T06:14:51.688Z,32.90
2023-04-18T06:17:20.841Z,29.52
2023-04-18T06:19:50.381Z,31.02
2023-04-18T06:22:18.863Z,25.83
2023-04-18T06:24:47.673Z,26.75
2023-04-18T06:27:30.278Z,28.70
2023-04-18T06:30:00.088Z,25.42
2023-04-18T06:32:28.338Z,26.17
2023-04-18T06:34:57.911Z,25.35
2023-04-18T06:37:26.550Z,25.35
2023-04-18T06:39:55.689Z,22.35
2023-04-18T06:42:23.887Z,24.50
2023-04-18T06:44:52.383Z,21.80
2023-04-18T06:47:20.641Z,23.15
2023-04-18T06:49:49.115Z,20.27
2023-04-18T06:52:18.903Z,20.25
2023-04-18T06:54:46.981Z,21.42
2023-04-18T06:57:15.167Z,21.33
2023-04-18T06:59:43.795Z,20.40
2023-04-18T07:02:12.646Z,22.05
2023-04-18T07:04:41.156Z,21.00
2023-04-18T07:07:10.235Z,21.90
2023-04-18T07:09:39.963Z,21.02
2023-04-18T07:12:08.434Z,22.02
2023-04-18T07:14:37.030Z,19.08
2023-04-18T07:17:05.324Z,21.17
2023-04-18T07:19:33.575Z,19.88
2023-04-18T07:22:02.351Z,19.30
2023-04-18T07:24:30.999Z,19.58
2023-04-18T07:27:01.381Z,19.27
2023-04-18T07:29:29.963Z,18.83
2023-04-18T07:31:58.956Z,19.05
2023-04-18T07:34:29.872Z,19.35
2023-04-18T07:36:59.139Z,23.33
2023-04-18T07:39:27.390Z,18.33
2023-04-18T07:41:55.564Z,17.67
2023-04-18T07:44:26.005Z,20.30
2023-04-18T07:46:54.265Z,17.73
2023-04-18T07:49:22.505Z,20.80
2023-04-18T07:51:50.829Z,21.45
2023-04-18T07:54:18.995Z,19.35
2023-04-18T07:56:47.525Z,18.42
2023-04-18T07:59:16.730Z,19.25
2023-04-18T08:01:46.602Z,18.17
2023-04-18T08:04:15.948Z,20.63
2023-04-18T08:06:44.624Z,19.17
2023-04-18T08:09:13.077Z,18.73
2023-04-18T08:11:43.620Z,19.23
2023-04-18T08:14:12.207Z,21.85
2023-04-18T08:16:40.503Z,20.20
2023-04-18T08:19:10.261Z,16.77
2023-04-18T08:21:39.585Z,17.88
2023-04-18T08:24:08.400Z,20.60
2023-04-18T08:26:36.611Z,18.17
2023-04-18T08:29:05.256Z,18.50
2023-04-18T08:31:33.541Z,19.15
2023-04-18T08:34:03.127Z,19.42
2023-04-18T08:36:36.353Z,18.20
2023-04-18T08:39:04.645Z,17.60
2023-04-18T08:41:37.389Z,17.98
2023-04-18T08:44:05.833Z,17.43
2023-04-18T08:46:35.893Z,18.08
2023-04-18T08:49:06.301Z,19.13
2023-04-18T08:51:36.011Z,21.40
2023-04-18T08:54:08.270Z,23.63
2023-04-18T08:56:37.533Z,21.65
2023-04-18T08:59:06.011Z,24.20
2023-04-18T09:01:57.066Z,23.30
2023-04-18T09:04:37.335Z,22.15
2023-04-18T09:07:09.196Z,21.88
2023-04-18T09:09:48.152Z,24.55
2023-04-18T09:12:19.996Z,26.83
2023-04-18T09:14:50.377Z,24.95
2023-04-18T09:17:33.192Z,25.15
2023-04-18T09:20:05.182Z,25.88
2023-04-18T09:22:51.951Z,24.92
2023-04-18T09:25:30.536Z,22.05
2023-04-18T09:28:01.384Z,22.25
2023-04-18T09:30:36.946Z,23.80
2023-04-18T09:33:07.926Z,24.25
2023-04-18T09:35:37.027Z,24.80
2023-04-18T09:38:07.286Z,26.55
2023-04-18T09:40:35.895Z,29.55
2023-04-18T09:43:19.467Z,28.90
2023-04-18T09:45:49.748Z,25.42
2023-04-18T09:48:18.087Z,27.13
2023-04-18T09:50:48.685Z,28.95
2023-04-18T09:53:21.100Z,29.42
2023-04-18T09:55:53.255Z,30.85
2023-04-18T09:58:24.092Z,34.27
2023-04-18T10:00:54.751Z,31.55
2023-04-18T10:03:27.375Z,29.33
2023-04-18T10:05:57.762Z,29.13
2023-04-18T10:08:28.614Z,27.73
2023-04-18T10:10:58.731Z,28.60
2023-04-18T10:13:29.381Z,27.80
2023-04-18T10:15:58.536Z,25.60
2023-04-18T10:18:26.863Z,27.63
2023-04-18T10:21:04.343Z,26.08
2023-04-18T10:23:39.131Z,25.67
2023-04-18T10:26:08.013Z,25.67
2023-04-18T10:28:54.568Z,23.92
2023-04-18T10:31:24.719Z,24.27
2023-04-18T10:36:28.460Z,24.33
2023-04-18T10:39:03.212Z,23.27
2023-04-18T10:41:33.099Z,23.38
2023-04-18T10:44:22.403Z,23.77
2023-04-18T10:47:33.739Z,23.42
2023-04-18T10:50:07.031Z,24.00
2023-04-18T10:52:36.101Z,24.50
2023-04-18T10:55:26.859Z,22.52
2023-04-18T10:57:57.912Z,22.23
2023-04-18T11:00:26.773Z,22.00
2023-04-18T11:02:57.764Z,23.25
2023-04-18T11:05:28.292Z,21.52
2023-04-18T11:07:56.763Z,22.55
2023-04-18T11:10:27.874Z,21.42
2023-04-18T11:12:56.843Z,21.30
2023-04-18T11:15:28.605Z,21.67
2023-04-18T11:17:59.974Z,20.92
2023-04-18T11:20:28.936Z,21.73
2023-04-18T11:22:58.259Z,21.90
2023-04-18T11:25:30.625Z,24.33
2023-04-18T11:28:01.122Z,24.55
2023-04-18T11:30:36.996Z,23.38
2023-04-18T11:33:07.545Z,22.80
2023-04-18T11:35:39.279Z,22.17
2023-04-18T11:38:08.089Z,22.27
2023-04-18T11:40:39.801Z,22.45
2023-04-18T11:43:08.753Z,24.00
2023-04-18T11:45:36.960Z,21.45
2023-04-18T11:48:05.387Z,21.80
2023-04-18T11:50:38.444Z,21.67
2023-04-18T11:53:06.673Z,21.80
2023-04-18T11:55:36.210Z,21.52
2023-04-18T11:58:06.403Z,18.25
2023-04-18T12:00:37.227Z,19.58
2023-04-18T12:03:09.035Z,20.92
2023-04-18T12:05:39.639Z,19.45
2023-04-18T12:08:11.638Z,16.92
2023-04-18T12:10:46.581Z,18.23
2023-04-18T12:13:16.620Z,18.25
2023-04-18T12:15:46.498Z,20.35
2023-04-18T12:18:15.828Z,22.17
2023-04-18T12:20:50.678Z,18.75
2023-04-18T12:23:35.636Z,19.90
2023-04-18T12:26:05.959Z,19.00
2023-04-18T12:28:36.625Z,17.73
2023-04-18T12:31:07.579Z,19.40
2023-04-18T12:33:36.828Z,20.73
2023-04-18T12:36:06.155Z,19.48
2023-04-18T12:38:34.639Z,18.25
2023-04-18T12:41:02.803Z,19.85
2023-04-18T12:43:31.201Z,19.35
2023-04-18T12:46:01.740Z,19.58
2023-04-18T12:48:29.884Z,19.77
2023-04-18T12:50:58.045Z,21.23
2023-04-18T12:53:26.458Z,22.45
2023-04-18T12:55:54.646Z,21.88
2023-04-18T12:58:23.057Z,20.10
2023-04-18T13:00:51.528Z,19.88
2023-04-18T13:03:21.365Z,20.75
2023-04-18T13:05:49.626Z,20.30
2023-04-18T13:08:18.224Z,20.20
2023-04-18T13:10:47.418Z,19.73
2023-04-18T13:13:15.795Z,20.05
2023-04-18T13:15:44.043Z,21.45
2023-04-18T13:18:12.212Z,20.77
2023-04-18T13:20:42.226Z,21.15
2023-04-18T13:23:10.920Z,21.77
2023-04-18T13:25:39.720Z,21.73
2023-04-18T13:28:08.083Z,22.25
2023-04-18T13:30:37.160Z,21.23
2023-04-18T13:33:05.396Z,20.45
2023-04-18T13:35:33.910Z,22.75
2023-04-18T13:38:04.268Z,23.55
2023-04-18T13:40:33.474Z,24.42
2023-04-18T13:43:01.804Z,25.88
2023-04-18T13:45:30.112Z,26.45
2023-04-18T13:47:58.303Z,25.85
2023-04-18T13:50:26.719Z,23.80
2023-04-18T13:52:55.290Z,24.52
2023-04-18T13:55:25.180Z,23.20
2023-04-18T13:57:53.365Z,21.27
2023-04-18T14:00:22.270Z,20.67
2023-04-18T14:02:50.960Z,18.73
2023-04-18T14:05:19.776Z,17.95
2023-04-18T14:07:49.127Z,17.90
2023-04-18T14:10:17.244Z,15.88
2023-04-18T14:12:46.993Z,17.33
2023-04-18T14:15:15.210Z,16.23
2023-04-18T14:17:45.520Z,16.23
2023-04-18T14:20:19.397Z,16.75
2023-04-18T14:22:47.649Z,17.38
2023-04-18T14:25:17.018Z,18.60
2023-04-18T14:27:48.982Z,16.50
2023-04-18T14:30:17.436Z,15.73
2023-04-18T14:32:45.801Z,16.40
2023-04-18T14:35:14.755Z,16.52
2023-04-18T14:37:43.665Z,14.95
2023-04-18T14:40:12.810Z,14.95
2023-04-18T14:42:41.131Z,16.77
2023-04-18T14:45:12.563Z,13.55
2023-04-18T14:47:42.061Z,15.75
2023-04-18T14:50:12.550Z,13.27
2023-04-18T14:52:41.306Z,14.85
2023-04-18T14:55:10.933Z,14.75
2023-04-18T14:57:40.119Z,14.82
2023-04-18T15:00:12.232Z,14.60
2023-04-18T15:02:41.405Z,15.07
2023-04-18T15:05:13.660Z,16.20
2023-04-18T15:07:43.665Z,17.83
2023-04-18T15:10:13.189Z,17.10
2023-04-18T15:12:41.573Z,18.52
2023-04-18T15:15:12.564Z,18.90
2023-04-18T15:17:40.910Z,18.80
2023-04-18T15:20:10.301Z,19.58
2023-04-18T15:22:38.825Z,19.55
2023-04-18T15:25:08.271Z,22.90
2023-04-18T15:27:36.479Z,19.70
2023-04-18T15:30:05.086Z,22.10
2023-04-18T15:32:34.883Z,20.40
2023-04-18T15:35:03.317Z,20.20
2023-04-18T15:37:31.963Z,21.63
2023-04-18T15:40:00.180Z,21.85
2023-04-18T15:42:29.194Z,20.15
2023-04-18T15:44:57.620Z,22.75
2023-04-18T15:47:25.897Z,21.95
2023-04-18T15:49:55.966Z,20.92
2023-04-18T15:52:24.290Z,23.38
2023-04-18T15:54:52.981Z,24.20
2023-04-18T15:57:21.826Z,24.25
2023-04-18T15:59:50.148Z,25.88
2023-04-18T16:02:18.333Z,24.48
2023-04-18T16:04:46.934Z,24.10
2023-04-18T16:07:17.256Z,24.23
2023-04-18T16:09:45.385Z,24.90
2023-04-18T16:12:13.728Z,23.70
2023-04-18T16:14:42.309Z,24.05
2023-04-18T16:17:12.632Z,25.50
2023-04-18T16:19:41.074Z,25.90
2023-04-18T16:22:12.520Z,25.50
2023-04-18T16:24:42.374Z,25.45
2023-04-18T16:27:10.587Z,25.17
2023-04-18T16:29:38.827Z,25.73
2023-04-18T16:32:08.415Z,25.75
2023-04-18T16:34:36.670Z,27.17
2023-04-18T16:37:04.962Z,25.25
2023-04-18T16:39:33.385Z,25.83
2023-04-18T16:42:03.020Z,25.73
2023-04-18T16:44:31.585Z,26.33
2023-04-18T16:47:00.022Z,28.05
2023-04-18T16:49:28.380Z,27.38
2023-04-18T16:51:56.678Z,28.67
2023-04-18T16:54:25.064Z,26.60
2023-04-18T16:56:53.377Z,26.15
2023-04-18T16:59:23.090Z,26.23
2023-04-18T17:01:51.435Z,28.17
2023-04-18T17:04:19.664Z,27.27
2023-04-18T17:06:48.580Z,27.17
2023-04-18T17:09:19.785Z,27.20
2023-04-18T17:11:48.103Z,27.58
2023-04-18T17:14:16.739Z,26.98
2023-04-18T17:16:46.442Z,26.40
2023-04-18T17:19:14.948Z,28.70
2023-04-18T17:21:44.106Z,25.13
2023-04-18T17:24:12.345Z,25.67
2023-04-18T17:26:40.894Z,25.25
2023-04-18T17:29:09.177Z,25.20
2023-04-18T17:31:37.860Z,26.25
2023-04-18T17:34:07.569Z,24.77
2023-04-18T17:36:35.776Z,26.17
2023-04-18T17:39:06.501Z,27.25
2023-04-18T17:41:38.078Z,26.30
2023-04-18T17:44:08.333Z,27.13
2023-04-18T17:46:37.120Z,26.50
2023-04-18T17:49:05.776Z,28.15
2023-04-18T17:51:35.375Z,27.98
2023-04-18T17:54:05.161Z,29.10
2023-04-18T17:56:33.491Z,28.95
2023-04-18T17:59:01.983Z,28.92
2023-04-18T18:01:30.568Z,29.17
2023-04-18T18:03:59.186Z,29.35
2023-04-18T18:06:28.406Z,31.67
2023-04-18T18:08:58.050Z,33.20
2023-04-18T18:11:27.757Z,33.42
2023-04-18T18:13:57.534Z,34.40
2023-04-18T18:16:26.195Z,35.22
2023-04-18T18:18:54.765Z,34.10
2023-04-18T18:21:22.986Z,35.78
2023-04-18T18:23:51.295Z,34.72
2023-04-18T18:26:20.910Z,36.08
2023-04-18T18:28:49.198Z,36.95
2023-04-18T18:31:19.725Z,34.90
2023-04-18T18:33:48.151Z,35.58
2023-04-18T18:36:16.376Z,36.67
2023-04-18T18:38:47.674Z,35.40
2023-04-18T18:41:16.068Z,36.65
2023-04-18T18:43:45.868Z,37.35
2023-04-18T18:46:15.870Z,39.10
2023-04-18T18:48:44.454Z,36.28
2023-04-18T18:51:12.725Z,39.10
2023-04-18T18:53:40.928Z,38.95
2023-04-18T18:56:09.887Z,38.38
2023-04-18T18:58:39.216Z,36.38
2023-04-18T19:01:08.922Z,39.00
2023-04-18T19:03:37.350Z,37.72
2023-04-18T19:06:07.365Z,38.13
2023-04-18T19:08:36.109Z,38.72
2023-04-18T19:11:04.584Z,39.10
2023-04-18T19:13:33.034Z,41.10
2023-04-18T19:16:01.224Z,40.63
2023-04-18T19:18:31.095Z,38.28
2023-04-18T19:20:59.423Z,42.42
2023-04-18T19:23:27.856Z,39.80
2023-04-18T19:25:56.219Z,40.58
2023-04-18T19:28:24.754Z,41.72
2023-04-18T19:30:53.131Z,41.83
2023-04-18T19:33:24.370Z,38.90
2023-04-18T19:35:54.024Z,41.58
2023-04-18T19:38:22.249Z,39.97
2023-04-18T19:40:50.715Z,39.58
2023-04-18T19:43:19.167Z,38.65
2023-04-18T19:45:47.455Z,38.72
2023-04-18T19:48:16.713Z,39.10
2023-04-18T19:50:45.137Z,42.35
2023-04-18T19:53:15.620Z,36.22
2023-04-18T19:55:45.651Z,38.45
2023-04-18T19:58:33.708Z,40.00
2023-04-18T20:01:02.067Z,37.78
2023-04-18T20:03:31.165Z,39.45
2023-04-18T20:05:59.497Z,37.35
2023-04-18T20:08:29.403Z,37.25
2023-04-18T20:10:57.940Z,34.95
2023-04-18T20:13:26.099Z,36.60
2023-04-18T20:15:54.218Z,37.40
2023-04-18T20:18:24.062Z,37.88
2023-04-18T20:20:52.235Z,34.50
2023-04-18T20:23:20.606Z,38.95
2023-04-18T20:25:51.055Z,38.15
2023-04-18T20:28:19.246Z,37.30
2023-04-18T20:30:48.101Z,37.45
2023-04-18T20:33:16.733Z,36.25
2023-04-18T20:35:46.765Z,34.70
2023-04-18T20:38:15.364Z,36.70
2023-04-18T20:40:45.052Z,36.80
2023-04-18T20:43:17.493Z,35.63
2023-04-18T20:45:46.118Z,35.58
2023-04-18T20:48:14.462Z,35.95
2023-04-18T20:50:44.481Z,36.72
2023-04-18T20:53:12.842Z,36.47
2023-04-18T20:55:40.980Z,37.92
2023-04-18T20:58:09.209Z,39.67
2023-04-18T21:00:38.935Z,35.90
2023-04-18T21:03:07.319Z,39.65
2023-04-18T21:05:35.650Z,38.88
2023-04-18T21:08:04.149Z,40.47
2023-04-18T21:10:33.229Z,37.67
2023-04-18T21:13:01.366Z,38.80
2023-04-18T21:15:29.730Z,39.38
2023-04-18T21:17:59.443Z,38.47
2023-04-18T21:20:27.829Z,37.05
2023-04-18T21:22:56.116Z,35.67
2023-04-18T21:25:24.389Z,36.78
2023-04-18T21:27:52.542Z,37.50
2023-04-18T21:30:21.311Z,34.20
2023-04-18T21:32:51.516Z,37.28
2023-04-18T21:35:23.406Z,36.22
2023-04-18T21:37:53.278Z,34.47
2023-04-18T21:40:21.710Z,33.60
2023-04-18T21:42:50.988Z,37.80
2023-04-18T21:45:19.825Z,38.20
2023-04-18T21:47:48.045Z,36.88
2023-04-18T21:50:16.339Z,36.92
2023-04-18T21:52:46.167Z,33.90
2023-04-18T21:55:14.555Z,35.10
2023-04-18T21:57:42.741Z,38.38
2023-04-18T22:00:12.883Z,36.30
2023-04-18T22:02:41.138Z,37.25
2023-04-18T22:05:09.950Z,34.03
2023-04-18T22:07:50.153Z,36.55
2023-04-18T22:10:24.912Z,35.72
2023-04-18T22:12:54.209Z,36.13
2023-04-18T22:15:22.559Z,36.58
2023-04-18T22:17:50.757Z,35.55
2023-04-18T22:20:19.024Z,37.38
2023-04-18T22:22:47.246Z,38.42
2023-04-18T22:25:15.464Z,38.05
2023-04-18T22:27:46.522Z,36.13
2023-04-18T22:30:15.914Z,36.45
2023-04-18T22:32:44.185Z,34.78
2023-04-18T22:35:12.925Z,37.55
2023-04-18T22:37:41.131Z,38.53
2023-04-18T22:40:10.442Z,37.47
2023-04-18T22:42:39.021Z,40.15
2023-04-18T22:45:09.831Z,37.33
2023-04-18T22:47:38.058Z,39.20
2023-04-18T22:50:10.225Z,35.67
2023-04-18T22:52:38.395Z,36.13
2023-04-18T22:55:07.289Z,39.05
2023-04-18T22:57:36.017Z,36.50
2023-04-18T23:00:06.447Z,39.60
2023-04-18T23:02:36.391Z,37.50
2023-04-18T23:05:05.437Z,36.55
2023-04-18T23:07:33.561Z,39.15
2023-04-18T23:10:01.825Z,38.15
2023-04-18T23:12:30.174Z,37.53
2023-04-18T23:14:58.264Z,39.60
2023-04-18T23:17:26.659Z,37.55
2023-04-18T23:19:56.325Z,40.60
2023-04-18T23:22:25.200Z,40.35
2023-04-18T23:24:53.578Z,39.58
2023-04-18T23:27:22.122Z,40.42
2023-04-18T23:29:50.891Z,37.80
2023-04-18T23:32:19.048Z,36.97
2023-04-18T23:34:47.480Z,39.22
2023-04-18T23:37:16.991Z,39.13
2023-04-18T23:39:45.401Z,43.15
2023-04-18T23:42:13.814Z,40.83
2023-04-18T23:44:41.919Z,39.15
2023-04-18T23:47:10.205Z,39.05
2023-04-18T23:49:38.534Z,41.00
2023-04-18T23:52:07.209Z,38.63
2023-04-18T23:54:36.724Z,39.85
2023-04-18T23:57:04.997Z,43.63
2023-04-18T23:59:33.211Z,44.97
